Time;durP1;ratioP1;P1;durP2;ratioP2;P2;SDS_P1;SDS_P2;PMS_P1;PMS_P2;Temp;Humidity;BMP_temperature;BMP_pressure;BME280_temperature;BME280_humidity;BME280_pressure;Samples;Min_cycle;Max_cycle;Signal;HPM_P1;HPM_P2
2021/12/06 00:00:32;;;;;;;1.20;1.20;;;;;;;;;;5089959;28;20205;-65
2021/12/06 00:03:23;;;;;;;0.93;0.93;;;;;;;;;;5094923;28;20607;-64
2021/12/06 00:06:12;;;;;;;1.13;1.03;;;;;;;;;;5109368;28;20241;-64
2021/12/06 00:09:02;;;;;;;0.90;0.90;;;;;;;;;;5109827;28;20689;-64
2021/12/06 00:11:51;;;;;;;0.83;0.83;;;;;;;;;;5107731;28;20282;-64
2021/12/06 00:14:40;;;;;;;1.27;1.17;;;;;;;;;;5107450;28;20236;-64
2021/12/06 00:17:27;;;;;;;1.10;1.10;;;;;;;;;;5109080;28;20202;-64
2021/12/06 00:20:16;;;;;;;1.00;1.00;;;;;;;;;;5101878;28;20315;-64
2021/12/06 00:23:03;;;;;;;1.20;1.10;;;;;;;;;;5088191;28;20207;-64
2021/12/06 00:25:51;;;;;;;0.80;0.80;;;;;;;;;;5072881;28;20203;-64
2021/12/06 00:28:40;;;;;;;0.80;0.80;;;;;;;;;;5072193;28;20245;-64
2021/12/06 00:31:32;;;;;;;1.00;1.00;;;;;;;;;;5071576;28;20569;-64
2021/12/06 00:34:20;;;;;;;1.03;0.93;;;;;;;;;;5071848;28;20272;-64
2021/12/06 00:37:18;;;;;;;0.90;0.90;;;;;;;;;;5072149;28;20674;-64
2021/12/06 00:40:07;;;;;;;0.70;0.70;;;;;;;;;;5071961;28;20207;-64
2021/12/06 00:42:56;;;;;;;0.87;0.87;;;;;;;;;;5073626;28;20206;-64
2021/12/06 00:45:43;;;;;;;0.83;0.83;;;;;;;;;;5085171;28;20286;-64
2021/12/06 00:48:30;;;;;;;0.80;0.80;;;;;;;;;;5072219;28;20480;-63
2021/12/06 00:51:17;;;;;;;0.70;0.70;;;;;;;;;;5071855;28;20281;-64
2021/12/06 00:54:05;;;;;;;0.80;0.80;;;;;;;;;;5071888;28;20356;-63
2021/12/06 00:56:52;;;;;;;0.70;0.70;;;;;;;;;;5071541;28;20199;-65
2021/12/06 00:59:41;;;;;;;0.70;0.70;;;;;;;;;;5071886;28;20234;-65
2021/12/06 01:02:27;;;;;;;0.70;0.70;;;;;;;;;;5071286;28;20295;-64
2021/12/06 01:05:15;;;;;;;0.63;0.63;;;;;;;;;;5087803;28;20236;-64
2021/12/06 01:08:02;;;;;;;0.63;0.63;;;;;;;;;;5091012;28;20218;-64
2021/12/06 01:10:50;;;;;;;0.70;0.70;;;;;;;;;;5091937;28;20259;-64
2021/12/06 01:13:38;;;;;;;0.60;0.60;;;;;;;;;;5090875;28;20405;-64
2021/12/06 01:16:27;;;;;;;0.80;0.80;;;;;;;;;;5090225;28;20194;-64
2021/12/06 01:19:14;;;;;;;0.70;0.70;;;;;;;;;;5091512;28;20248;-64
2021/12/06 01:22:12;;;;;;;0.50;0.50;;;;;;;;;;5090977;28;20689;-64
2021/12/06 01:25:03;;;;;;;0.60;0.60;;;;;;;;;;5092770;28;20289;-64
2021/12/06 01:28:17;;;;;;;0.97;0.63;;;;;;;;;;5092414;28;20228;-65
2021/12/06 01:31:06;;;;;;;0.63;0.63;;;;;;;;;;5090974;28;20202;-64
2021/12/06 01:34:10;;;;;;;0.67;0.67;;;;;;;;;;5091713;28;20199;-64
2021/12/06 01:40:04;;;;;;;0.70;0.70;;;;;;;;;;5091793;28;20280;-64
2021/12/06 01:42:51;;;;;;;0.50;0.50;;;;;;;;;;5091061;28;20210;-63
2021/12/06 01:45:38;;;;;;;0.70;0.70;;;;;;;;;;5091256;28;20285;-64
2021/12/06 01:48:25;;;;;;;0.60;0.60;;;;;;;;;;5091687;28;20308;-64
2021/12/06 01:51:13;;;;;;;0.60;0.60;;;;;;;;;;5091906;28;20267;-65
2021/12/06 01:54:01;;;;;;;0.50;0.50;;;;;;;;;;5091577;28;20724;-64
2021/12/06 01:56:49;;;;;;;0.50;0.50;;;;;;;;;;5090826;28;20244;-65
2021/12/06 01:59:36;;;;;;;0.60;0.60;;;;;;;;;;5091011;28;20336;-64
2021/12/06 02:02:24;;;;;;;0.50;0.50;;;;;;;;;;5092133;28;20347;-64
2021/12/06 02:05:11;;;;;;;0.70;0.70;;;;;;;;;;5088709;28;20318;-65
2021/12/06 02:07:59;;;;;;;0.43;0.43;;;;;;;;;;5090648;28;20226;-64
2021/12/06 02:10:46;;;;;;;0.70;0.70;;;;;;;;;;5090427;28;20230;-64
2021/12/06 02:13:36;;;;;;;0.60;0.60;;;;;;;;;;5090544;28;20574;-65
2021/12/06 02:16:31;;;;;;;0.70;0.70;;;;;;;;;;5090172;28;20205;-64
2021/12/06 02:19:19;;;;;;;0.60;0.60;;;;;;;;;;5091606;28;20281;-66
2021/12/06 02:22:09;;;;;;;0.70;0.70;;;;;;;;;;5110533;28;20203;-64
2021/12/06 02:24:57;;;;;;;0.63;0.63;;;;;;;;;;5106971;28;20200;-65
2021/12/06 02:27:46;;;;;;;0.60;0.60;;;;;;;;;;5108903;28;20731;-64
2021/12/06 02:30:33;;;;;;;0.50;0.50;;;;;;;;;;5110522;28;20298;-64
2021/12/06 02:33:22;;;;;;;0.70;0.70;;;;;;;;;;5111065;28;20657;-64
2021/12/06 02:36:09;;;;;;;0.60;0.60;;;;;;;;;;5110523;28;20282;-65
2021/12/06 02:38:58;;;;;;;0.67;0.67;;;;;;;;;;5110694;28;20201;-64
2021/12/06 02:41:46;;;;;;;0.50;0.50;;;;;;;;;;5089980;28;20194;-66
2021/12/06 02:44:33;;;;;;;0.60;0.60;;;;;;;;;;5089715;28;20199;-64
2021/12/06 02:47:21;;;;;;;0.57;0.57;;;;;;;;;;5089384;28;20694;-64
2021/12/06 02:50:11;;;;;;;0.70;0.70;;;;;;;;;;5090202;28;20288;-64
2021/12/06 02:52:58;;;;;;;0.60;0.60;;;;;;;;;;5090884;28;20755;-64
2021/12/06 02:55:52;;;;;;;0.60;0.60;;;;;;;;;;5089917;28;20213;-66
2021/12/06 02:58:56;;;;;;;0.53;0.53;;;;;;;;;;5089762;28;20281;-65
2021/12/06 03:01:47;;;;;;;0.57;0.57;;;;;;;;;;5089973;28;20204;-64
2021/12/06 03:04:34;;;;;;;0.70;0.70;;;;;;;;;;5105979;28;20252;-64
2021/12/06 03:07:24;;;;;;;0.50;0.50;;;;;;;;;;5110199;28;20332;-64
2021/12/06 03:10:11;;;;;;;0.60;0.60;;;;;;;;;;5110227;28;20203;-64
2021/12/06 03:13:00;;;;;;;0.60;0.60;;;;;;;;;;5109289;28;20291;-64
2021/12/06 03:15:47;;;;;;;0.60;0.60;;;;;;;;;;5110336;28;20291;-64
2021/12/06 03:18:34;;;;;;;0.80;0.80;;;;;;;;;;5111141;28;20225;-64
2021/12/06 03:21:23;;;;;;;0.60;0.60;;;;;;;;;;5092074;28;20601;-64
2021/12/06 03:24:10;;;;;;;0.70;0.70;;;;;;;;;;5090171;28;20249;-64
2021/12/06 03:26:57;;;;;;;0.50;0.50;;;;;;;;;;5089846;28;20230;-65
2021/12/06 03:29:46;;;;;;;0.87;0.87;;;;;;;;;;5090020;28;20251;-64
2021/12/06 03:32:33;;;;;;;0.80;0.80;;;;;;;;;;5088884;28;20288;-64
2021/12/06 03:35:20;;;;;;;1.10;1.10;;;;;;;;;;5088723;28;20279;-64
2021/12/06 03:38:07;;;;;;;1.20;1.20;;;;;;;;;;5088388;28;20241;-64
2021/12/06 03:40:54;;;;;;;1.20;1.20;;;;;;;;;;5075404;28;20265;-64
2021/12/06 03:43:42;;;;;;;0.97;0.97;;;;;;;;;;5068982;28;20286;-64
2021/12/06 03:46:34;;;;;;;1.43;1.40;;;;;;;;;;5067555;28;20300;-64
2021/12/06 03:49:21;;;;;;;1.30;1.30;;;;;;;;;;5069315;28;20210;-64
2021/12/06 03:52:08;;;;;;;0.90;0.90;;;;;;;;;;5069472;28;20242;-64
2021/12/06 03:54:56;;;;;;;0.97;0.97;;;;;;;;;;5069785;28;20286;-64
2021/12/06 03:57:42;;;;;;;1.10;1.10;;;;;;;;;;5070791;28;20282;-64
2021/12/06 04:00:29;;;;;;;1.00;1.00;;;;;;;;;;5073969;28;20616;-64
2021/12/06 04:03:20;;;;;;;1.10;1.10;;;;;;;;;;5077802;28;20230;-64
2021/12/06 04:06:07;;;;;;;1.00;1.00;;;;;;;;;;5092909;28;20368;-64
2021/12/06 04:08:55;;;;;;;1.03;1.03;;;;;;;;;;5093096;28;20315;-64
2021/12/06 04:11:42;;;;;;;1.00;1.00;;;;;;;;;;5073049;28;20357;-64
2021/12/06 04:14:29;;;;;;;1.10;1.10;;;;;;;;;;5073056;28;20207;-65
2021/12/06 04:17:16;;;;;;;0.80;0.80;;;;;;;;;;5071742;28;20203;-64
2021/12/06 04:20:06;;;;;;;0.93;0.93;;;;;;;;;;5077478;28;20717;-64
2021/12/06 04:22:54;;;;;;;0.90;0.90;;;;;;;;;;5093948;28;20200;-65
2021/12/06 04:25:42;;;;;;;0.90;0.90;;;;;;;;;;5093824;28;20202;-65
2021/12/06 04:28:32;;;;;;;0.83;0.83;;;;;;;;;;5093253;28;20254;-65
2021/12/06 04:31:19;;;;;;;0.70;0.70;;;;;;;;;;5092821;28;20210;-64
2021/12/06 04:34:06;;;;;;;0.73;0.73;;;;;;;;;;5100051;28;20259;-64
2021/12/06 04:36:55;;;;;;;0.70;0.70;;;;;;;;;;5113584;28;20976;-65
2021/12/06 04:39:42;;;;;;;0.90;0.90;;;;;;;;;;5110500;28;20616;-65
2021/12/06 04:42:29;;;;;;;0.80;0.80;;;;;;;;;;5093051;28;20286;-65
2021/12/06 04:45:16;;;;;;;0.80;0.80;;;;;;;;;;5091590;28;20204;-64
2021/12/06 04:48:04;;;;;;;0.70;0.70;;;;;;;;;;5091742;28;20343;-64
2021/12/06 04:50:51;;;;;;;1.00;1.00;;;;;;;;;;5093267;28;20206;-65
2021/12/06 04:53:40;;;;;;;0.60;0.60;;;;;;;;;;5092935;28;20285;-64
2021/12/06 04:56:30;;;;;;;0.70;0.70;;;;;;;;;;5092081;28;20294;-65
2021/12/06 04:59:22;;;;;;;0.83;0.83;;;;;;;;;;5092274;28;20234;-64
2021/12/06 05:02:13;;;;;;;0.80;0.80;;;;;;;;;;5092677;28;20202;-64
2021/12/06 05:05:04;;;;;;;0.90;0.90;;;;;;;;;;5107967;28;20705;-64
2021/12/06 05:07:59;;;;;;;1.10;1.10;;;;;;;;;;5092459;28;20361;-64
2021/12/06 05:10:49;;;;;;;1.63;1.53;;;;;;;;;;5103554;28;20209;-64
2021/12/06 05:13:38;;;;;;;1.63;1.53;;;;;;;;;;5111543;28;20280;-64
2021/12/06 05:16:25;;;;;;;1.90;1.80;;;;;;;;;;5103905;28;20344;-64
2021/12/06 05:19:12;;;;;;;1.80;1.70;;;;;;;;;;5092883;28;20278;-65
2021/12/06 05:21:59;;;;;;;2.10;1.97;;;;;;;;;;5105461;28;20283;-64
2021/12/06 05:24:46;;;;;;;2.03;1.93;;;;;;;;;;5093415;28;20251;-66
2021/12/06 05:27:35;;;;;;;2.70;2.50;;;;;;;;;;5091113;27;20206;-64
2021/12/06 05:30:23;;;;;;;2.57;2.40;;;;;;;;;;5108234;28;20677;-64
2021/12/06 05:33:17;;;;;;;2.50;2.30;;;;;;;;;;5105642;28;20213;-64
2021/12/06 05:36:05;;;;;;;2.40;2.27;;;;;;;;;;5110119;28;20194;-64
2021/12/06 05:38:52;;;;;;;3.93;2.47;;;;;;;;;;5110391;28;20231;-64
2021/12/06 05:41:42;;;;;;;2.73;2.53;;;;;;;;;;5083708;28;20371;-64
2021/12/06 05:44:31;;;;;;;2.60;2.40;;;;;;;;;;5090473;28;20215;-64
2021/12/06 05:47:18;;;;;;;2.83;2.37;;;;;;;;;;5102600;28;20231;-64
2021/12/06 05:50:06;;;;;;;2.60;2.40;;;;;;;;;;5110745;28;20267;-64
2021/12/06 05:52:55;;;;;;;2.57;2.37;;;;;;;;;;5103167;28;20207;-64
2021/12/06 05:55:43;;;;;;;2.37;2.23;;;;;;;;;;5108837;28;20694;-64
2021/12/06 05:58:32;;;;;;;2.47;2.30;;;;;;;;;;5110987;28;20281;-65
2021/12/06 06:01:24;;;;;;;2.43;2.23;;;;;;;;;;5090471;28;20284;-64
2021/12/06 06:04:10;;;;;;;2.33;2.23;;;;;;;;;;5102355;28;20308;-64
2021/12/06 06:06:57;;;;;;;2.73;2.53;;;;;;;;;;5100689;28;20211;-65
2021/12/06 06:09:45;;;;;;;2.33;2.23;;;;;;;;;;5101020;28;20275;-64
2021/12/06 06:12:33;;;;;;;2.20;2.10;;;;;;;;;;5110289;28;20284;-64
2021/12/06 06:15:19;;;;;;;2.13;2.03;;;;;;;;;;5102812;28;20478;-64
2021/12/06 06:18:08;;;;;;;2.10;2.00;;;;;;;;;;5090892;28;20267;-64
2021/12/06 06:20:56;;;;;;;2.30;2.10;;;;;;;;;;5077464;28;20313;-64
2021/12/06 06:23:43;;;;;;;2.10;2.00;;;;;;;;;;5085533;28;20681;-65
2021/12/06 06:26:31;;;;;;;2.00;1.90;;;;;;;;;;5090010;28;20285;-64
2021/12/06 06:29:18;;;;;;;1.97;1.87;;;;;;;;;;5075827;28;20255;-65
2021/12/06 06:32:06;;;;;;;1.97;1.87;;;;;;;;;;5069192;28;20261;-64
2021/12/06 06:34:54;;;;;;;1.70;1.60;;;;;;;;;;5071368;28;20529;-64
2021/12/06 06:37:42;;;;;;;1.93;1.83;;;;;;;;;;5083273;28;20666;-64
2021/12/06 06:40:29;;;;;;;2.10;2.00;;;;;;;;;;5089686;28;20198;-64
2021/12/06 06:43:16;;;;;;;1.63;1.53;;;;;;;;;;5089825;28;20224;-65
2021/12/06 06:46:03;;;;;;;1.50;1.40;;;;;;;;;;5083581;28;20203;-65
2021/12/06 06:48:50;;;;;;;1.63;1.53;;;;;;;;;;5069725;28;20331;-64
2021/12/06 06:51:39;;;;;;;1.80;1.70;;;;;;;;;;5086675;28;20209;-64
2021/12/06 06:54:26;;;;;;;1.80;1.70;;;;;;;;;;5082237;28;20259;-64
2021/12/06 06:57:13;;;;;;;1.20;1.20;;;;;;;;;;5087042;28;20293;-64
2021/12/06 07:00:00;;;;;;;1.60;1.50;;;;;;;;;;5087076;28;20662;-64
2021/12/06 07:02:47;;;;;;;1.63;1.53;;;;;;;;;;5085579;28;20629;-65
2021/12/06 07:05:35;;;;;;;1.87;1.77;;;;;;;;;;5088731;28;20747;-64
2021/12/06 07:08:23;;;;;;;1.77;1.67;;;;;;;;;;5088161;28;20434;-64
2021/12/06 07:11:10;;;;;;;1.93;1.83;;;;;;;;;;5088412;28;20672;-64
2021/12/06 07:13:58;;;;;;;1.90;1.80;;;;;;;;;;5089714;28;20199;-64
2021/12/06 07:16:47;;;;;;;1.73;1.60;;;;;;;;;;5088304;28;20749;-64
2021/12/06 07:19:34;;;;;;;1.87;1.77;;;;;;;;;;5083231;28;20343;-64
2021/12/06 07:22:21;;;;;;;2.20;2.10;;;;;;;;;;5088252;28;20410;-64
2021/12/06 07:25:11;;;;;;;1.90;1.80;;;;;;;;;;5082832;28;20560;-64
2021/12/06 07:27:59;;;;;;;2.10;2.00;;;;;;;;;;5069746;28;20195;-64
2021/12/06 07:30:46;;;;;;;2.20;2.00;;;;;;;;;;5068364;28;20296;-64
2021/12/06 07:33:34;;;;;;;1.90;1.80;;;;;;;;;;5069561;28;20213;-65
2021/12/06 07:36:23;;;;;;;1.90;1.80;;;;;;;;;;5089439;28;20234;-64
2021/12/06 07:39:10;;;;;;;1.60;1.50;;;;;;;;;;5080881;28;20227;-64
2021/12/06 07:41:59;;;;;;;1.90;1.80;;;;;;;;;;5081713;28;20206;-64
2021/12/06 07:44:46;;;;;;;1.80;1.70;;;;;;;;;;5076426;28;20203;-64
2021/12/06 07:47:36;;;;;;;1.70;1.60;;;;;;;;;;5068046;28;20211;-64
2021/12/06 07:50:24;;;;;;;1.90;1.80;;;;;;;;;;5067355;28;20203;-65
2021/12/06 07:53:11;;;;;;;1.80;1.70;;;;;;;;;;5078929;28;20284;-64
2021/12/06 07:55:58;;;;;;;1.80;1.70;;;;;;;;;;5067354;28;20590;-64
2021/12/06 07:58:46;;;;;;;1.70;1.60;;;;;;;;;;5068728;28;20211;-65
2021/12/06 08:01:33;;;;;;;1.60;1.50;;;;;;;;;;5085441;28;20226;-64
2021/12/06 08:04:20;;;;;;;1.60;1.50;;;;;;;;;;5085020;28;20738;-64
2021/12/06 08:07:07;;;;;;;1.40;1.40;;;;;;;;;;5073292;28;20203;-65
2021/12/06 08:09:54;;;;;;;1.43;1.33;;;;;;;;;;5071491;28;20245;-65
2021/12/06 08:12:41;;;;;;;1.50;1.33;;;;;;;;;;5083477;28;20235;-64
2021/12/06 08:15:30;;;;;;;1.30;1.30;;;;;;;;;;5086929;28;20289;-65
2021/12/06 08:18:17;;;;;;;0.93;0.93;;;;;;;;;;5088034;28;20684;-64
2021/12/06 08:21:05;;;;;;;1.30;1.30;;;;;;;;;;5087328;28;20312;-64
2021/12/06 08:23:54;;;;;;;1.20;1.20;;;;;;;;;;5108630;28;20285;-64
2021/12/06 08:26:42;;;;;;;1.40;1.30;;;;;;;;;;5109984;28;20234;-64
2021/12/06 08:29:29;;;;;;;1.30;1.20;;;;;;;;;;5108914;28;20297;-64
2021/12/06 08:32:18;;;;;;;1.20;1.20;;;;;;;;;;5108705;28;20258;-64
2021/12/06 08:35:07;;;;;;;1.37;1.37;;;;;;;;;;5109239;28;20246;-65
2021/12/06 08:37:55;;;;;;;1.17;1.17;;;;;;;;;;5108615;28;20209;-64
2021/12/06 08:40:44;;;;;;;1.60;1.50;;;;;;;;;;5108959;28;20202;-67
2021/12/06 08:43:32;;;;;;;1.03;1.03;;;;;;;;;;5098982;28;20232;-64
2021/12/06 08:46:22;;;;;;;1.47;1.37;;;;;;;;;;5110806;28;20234;-64
2021/12/06 08:49:12;;;;;;;1.57;1.47;;;;;;;;;;5112936;28;20291;-64
2021/12/06 08:52:00;;;;;;;1.80;1.70;;;;;;;;;;5104921;28;20207;-65
2021/12/06 08:54:47;;;;;;;2.17;2.07;;;;;;;;;;5092913;28;20199;-66
2021/12/06 08:57:35;;;;;;;2.17;2.07;;;;;;;;;;5091838;28;20282;-64
2021/12/06 09:00:24;;;;;;;2.60;2.40;;;;;;;;;;5093080;28;20198;-64
2021/12/06 09:03:11;;;;;;;3.17;2.93;;;;;;;;;;5096747;28;20699;-65
2021/12/06 09:06:01;;;;;;;3.30;3.07;;;;;;;;;;5102439;28;20348;-64
2021/12/06 09:08:48;;;;;;;3.60;3.30;;;;;;;;;;5092794;28;20309;-65
2021/12/06 09:11:35;;;;;;;3.37;3.03;;;;;;;;;;5111100;28;20674;-64
2021/12/06 09:14:23;;;;;;;3.30;3.00;;;;;;;;;;5112689;28;20229;-64
2021/12/06 09:17:10;;;;;;;3.80;3.20;;;;;;;;;;5111969;28;20246;-64
2021/12/06 09:19:57;;;;;;;3.20;3.00;;;;;;;;;;5112760;28;20309;-65
2021/12/06 09:22:47;;;;;;;3.70;3.37;;;;;;;;;;5112760;28;20274;-64
2021/12/06 09:25:35;;;;;;;3.37;3.10;;;;;;;;;;5112003;28;20210;-64
2021/12/06 09:28:23;;;;;;;3.57;3.27;;;;;;;;;;5111705;28;20198;-65
2021/12/06 09:31:11;;;;;;;3.33;3.03;;;;;;;;;;5111436;28;20201;-64
2021/12/06 09:33:58;;;;;;;3.77;3.33;;;;;;;;;;5112995;28;20269;-64
2021/12/06 09:36:45;;;;;;;2.87;2.67;;;;;;;;;;5111908;28;20638;-65
2021/12/06 09:39:34;;;;;;;3.33;3.03;;;;;;;;;;5110815;28;20198;-65
2021/12/06 09:42:22;;;;;;;3.30;3.00;;;;;;;;;;5091676;28;20332;-64
2021/12/06 09:45:13;;;;;;;2.87;2.63;;;;;;;;;;5092039;28;20285;-65
2021/12/06 09:48:01;;;;;;;2.70;2.50;;;;;;;;;;5090243;28;20698;-64
2021/12/06 09:50:54;;;;;;;2.37;2.20;;;;;;;;;;5091201;28;20706;-64
2021/12/06 09:53:43;;;;;;;3.17;2.90;;;;;;;;;;5091157;28;20205;-64
2021/12/06 09:56:37;;;;;;;2.70;2.50;;;;;;;;;;5090884;28;20213;-64
2021/12/06 09:59:27;;;;;;;2.60;2.40;;;;;;;;;;5091105;28;20253;-64
2021/12/06 10:02:17;;;;;;;2.33;2.23;;;;;;;;;;5090140;28;20199;-64
2021/12/06 10:05:05;;;;;;;3.40;2.73;;;;;;;;;;5102197;28;20225;-64
2021/12/06 10:07:53;;;;;;;2.30;2.10;;;;;;;;;;5111630;28;20241;-64
2021/12/06 10:10:40;;;;;;;2.30;2.20;;;;;;;;;;5110657;28;20308;-64
2021/12/06 10:13:29;;;;;;;2.23;2.13;;;;;;;;;;5110940;28;20688;-64
2021/12/06 10:16:16;;;;;;;1.97;1.87;;;;;;;;;;5110275;28;20209;-64
2021/12/06 10:19:05;;;;;;;2.30;2.20;;;;;;;;;;5110233;28;20674;-64
2021/12/06 10:21:53;;;;;;;1.90;1.80;;;;;;;;;;5091709;28;20600;-64
2021/12/06 10:24:41;;;;;;;2.00;1.90;;;;;;;;;;5090481;28;20283;-64
2021/12/06 10:27:29;;;;;;;2.20;2.10;;;;;;;;;;5090630;28;20582;-64
2021/12/06 10:30:17;;;;;;;1.90;1.80;;;;;;;;;;5090010;28;20663;-64
2021/12/06 10:33:07;;;;;;;1.80;1.70;;;;;;;;;;5090242;28;20670;-65
2021/12/06 10:35:57;;;;;;;1.43;1.33;;;;;;;;;;5077176;28;20252;-64
2021/12/06 10:38:51;;;;;;;1.80;1.70;;;;;;;;;;5091047;28;20206;-65
2021/12/06 10:41:39;;;;;;;1.70;1.60;;;;;;;;;;5090365;28;20281;-65
2021/12/06 10:44:26;;;;;;;1.63;1.53;;;;;;;;;;5090129;28;20238;-64
2021/12/06 10:47:14;;;;;;;1.77;1.67;;;;;;;;;;5087806;28;20331;-64
2021/12/06 10:50:11;;;;;;;1.20;1.20;;;;;;;;;;5069813;28;20223;-64
2021/12/06 10:53:00;;;;;;;1.40;1.30;;;;;;;;;;5064281;28;20195;-64
2021/12/06 10:55:50;;;;;;;1.40;1.30;;;;;;;;;;5069536;28;20251;-64
2021/12/06 10:58:37;;;;;;;1.17;1.17;;;;;;;;;;5070117;28;20203;-65
2021/12/06 11:01:30;;;;;;;1.13;1.13;;;;;;;;;;5081090;28;20265;-65
2021/12/06 11:04:21;;;;;;;1.37;1.30;;;;;;;;;;5087861;28;20226;-64
2021/12/06 11:07:09;;;;;;;1.40;1.40;;;;;;;;;;5089710;28;20278;-64
2021/12/06 11:10:05;;;;;;;1.50;1.40;;;;;;;;;;5085107;28;20278;-65
2021/12/06 11:13:17;;;;;;;1.20;1.20;;;;;;;;;;5088561;28;20207;-65
2021/12/06 11:16:09;;;;;;;1.07;1.07;;;;;;;;;;5089343;28;20238;-64
2021/12/06 11:18:58;;;;;;;1.20;1.20;;;;;;;;;;5089726;28;20319;-64
2021/12/06 11:21:48;;;;;;;1.13;1.13;;;;;;;;;;5089490;28;20580;-64
2021/12/06 11:24:39;;;;;;;1.13;1.13;;;;;;;;;;5089157;28;20275;-65
2021/12/06 11:27:28;;;;;;;1.37;1.23;;;;;;;;;;5089471;28;20211;-64
2021/12/06 11:30:16;;;;;;;1.00;1.00;;;;;;;;;;5088009;28;20268;-64
2021/12/06 11:33:03;;;;;;;1.07;1.07;;;;;;;;;;5069196;28;20204;-64
2021/12/06 11:35:50;;;;;;;1.10;1.10;;;;;;;;;;5069648;28;20291;-64
2021/12/06 11:38:38;;;;;;;1.10;1.10;;;;;;;;;;5068823;28;20292;-63
2021/12/06 11:41:25;;;;;;;1.10;1.10;;;;;;;;;;5086665;28;20242;-65
2021/12/06 11:44:19;;;;;;;0.97;0.97;;;;;;;;;;5089002;28;20252;-65
2021/12/06 11:47:09;;;;;;;1.10;1.10;;;;;;;;;;5088353;28;20261;-64
2021/12/06 11:49:57;;;;;;;1.20;1.20;;;;;;;;;;5089029;28;20329;-66
2021/12/06 11:52:49;;;;;;;1.17;1.10;;;;;;;;;;5089265;28;20294;-65
2021/12/06 11:55:45;;;;;;;1.17;1.17;;;;;;;;;;5089919;28;20285;-64
2021/12/06 11:58:35;;;;;;;1.00;1.00;;;;;;;;;;5088955;28;20210;-64
2021/12/06 12:01:26;;;;;;;1.30;1.20;;;;;;;;;;5089490;28;20199;-64
2021/12/06 12:04:15;;;;;;;1.10;1.10;;;;;;;;;;5079582;28;20705;-64
2021/12/06 12:07:05;;;;;;;1.17;1.17;;;;;;;;;;5089443;28;20252;-65
2021/12/06 12:09:57;;;;;;;1.00;1.00;;;;;;;;;;5075663;28;20231;-64
2021/12/06 12:12:53;;;;;;;1.00;1.00;;;;;;;;;;5086276;28;20206;-64
2021/12/06 12:15:40;;;;;;;1.03;1.03;;;;;;;;;;5089602;28;20257;-65
2021/12/06 12:18:28;;;;;;;1.10;1.10;;;;;;;;;;5079655;28;20290;-64
2021/12/06 12:21:15;;;;;;;1.07;1.07;;;;;;;;;;5084158;28;20231;-64
2021/12/06 12:24:02;;;;;;;0.90;0.90;;;;;;;;;;5092934;28;20290;-64
2021/12/06 12:27:01;;;;;;;1.30;1.30;;;;;;;;;;5092441;28;20207;-65
2021/12/06 12:29:51;;;;;;;1.20;1.20;;;;;;;;;;5090074;28;20313;-64
2021/12/06 12:32:38;;;;;;;1.20;1.20;;;;;;;;;;5077282;28;20214;-64
2021/12/06 12:35:26;;;;;;;1.20;1.20;;;;;;;;;;5082472;28;20707;-64
2021/12/06 12:38:17;;;;;;;1.50;1.50;;;;;;;;;;5092345;28;20245;-64
2021/12/06 12:41:08;;;;;;;1.53;1.50;;;;;;;;;;5087160;28;20283;-64
2021/12/06 12:44:02;;;;;;;1.30;1.30;;;;;;;;;;5082824;28;20211;-64
2021/12/06 12:46:53;;;;;;;1.60;1.60;;;;;;;;;;5073965;28;20216;-65
2021/12/06 12:49:45;;;;;;;1.60;1.60;;;;;;;;;;5079666;28;20341;-64
2021/12/06 12:52:38;;;;;;;1.50;1.50;;;;;;;;;;5070914;28;20207;-64
2021/12/06 12:55:28;;;;;;;1.43;1.40;;;;;;;;;;5072312;28;20229;-65
2021/12/06 12:58:19;;;;;;;1.30;1.30;;;;;;;;;;5071892;28;20264;-65
2021/12/06 13:01:09;;;;;;;1.50;1.40;;;;;;;;;;5071942;28;20231;-64
2021/12/06 13:04:00;;;;;;;1.50;1.50;;;;;;;;;;5079689;28;20591;-64
2021/12/06 13:06:51;;;;;;;1.50;1.50;;;;;;;;;;5086503;28;20215;-64
2021/12/06 13:09:38;;;;;;;1.17;1.17;;;;;;;;;;5090470;28;20216;-64
2021/12/06 13:12:31;;;;;;;1.57;1.47;;;;;;;;;;5091930;28;20248;-64
2021/12/06 13:15:20;;;;;;;1.20;1.20;;;;;;;;;;5079565;28;20219;-64
2021/12/06 13:18:29;;;;;;;1.30;1.30;;;;;;;;;;5083438;28;20210;-64
2021/12/06 13:21:33;;;;;;;1.20;1.20;;;;;;;;;;5088599;28;20229;-64
2021/12/06 13:24:36;;;;;;;1.40;1.40;;;;;;;;;;5112822;28;20205;-64
2021/12/06 13:27:38;;;;;;;1.10;1.10;;;;;;;;;;5108429;28;20273;-64
2021/12/06 13:30:27;;;;;;;0.90;0.90;;;;;;;;;;5104038;28;20362;-65
2021/12/06 13:33:17;;;;;;;1.17;1.17;;;;;;;;;;5095609;28;20297;-65
2021/12/06 13:36:04;;;;;;;1.37;1.37;;;;;;;;;;5107992;28;20314;-64
2021/12/06 13:38:52;;;;;;;1.30;1.30;;;;;;;;;;5106499;28;20348;-64
2021/12/06 13:41:46;;;;;;;1.33;1.23;;;;;;;;;;5094542;28;20503;-64
2021/12/06 13:44:46;;;;;;;1.23;1.23;;;;;;;;;;5109462;28;20608;-64
2021/12/06 13:47:33;;;;;;;1.20;1.20;;;;;;;;;;5090516;28;20309;-65
2021/12/06 13:50:20;;;;;;;1.40;1.40;;;;;;;;;;5106397;28;20367;-65
2021/12/06 13:53:24;;;;;;;1.57;1.47;;;;;;;;;;5093476;28;20210;-64
2021/12/06 13:56:13;;;;;;;1.43;1.43;;;;;;;;;;5092124;28;20666;-64
2021/12/06 13:59:00;;;;;;;1.40;1.40;;;;;;;;;;5111276;28;20240;-64
2021/12/06 14:01:48;;;;;;;1.30;1.30;;;;;;;;;;5093926;28;20291;-64
2021/12/06 14:04:37;;;;;;;1.03;1.03;;;;;;;;;;5105508;28;20217;-65
2021/12/06 14:07:26;;;;;;;1.20;1.20;;;;;;;;;;5106849;28;20282;-64
2021/12/06 14:10:14;;;;;;;0.93;0.93;;;;;;;;;;5099240;28;20307;-64
2021/12/06 14:13:04;;;;;;;1.00;1.00;;;;;;;;;;5102951;28;20332;-64
2021/12/06 14:15:54;;;;;;;1.03;1.03;;;;;;;;;;5109179;28;20335;-66
2021/12/06 14:18:42;;;;;;;1.37;1.27;;;;;;;;;;5108446;28;20247;-64
2021/12/06 14:21:34;;;;;;;1.00;1.00;;;;;;;;;;5077623;28;20310;-64
2021/12/06 14:24:23;;;;;;;0.90;0.90;;;;;;;;;;5070883;28;20204;-64
2021/12/06 14:27:11;;;;;;;1.00;1.00;;;;;;;;;;5082401;28;20202;-64
2021/12/06 14:30:00;;;;;;;1.20;1.20;;;;;;;;;;5073087;28;20199;-64
2021/12/06 14:32:48;;;;;;;1.20;1.20;;;;;;;;;;5069887;28;20207;-64
2021/12/06 14:35:36;;;;;;;1.40;1.40;;;;;;;;;;5073523;28;20272;-64
2021/12/06 14:38:26;;;;;;;1.20;1.20;;;;;;;;;;5069017;28;20645;-64
2021/12/06 14:41:13;;;;;;;1.53;1.47;;;;;;;;;;5085736;28;20202;-64
2021/12/06 14:44:00;;;;;;;1.73;1.63;;;;;;;;;;5085089;28;20205;-64
2021/12/06 14:46:49;;;;;;;1.20;1.20;;;;;;;;;;5077932;28;20235;-65
2021/12/06 14:49:37;;;;;;;1.40;1.40;;;;;;;;;;5087578;28;20657;-65
2021/12/06 14:52:32;;;;;;;1.97;1.87;;;;;;;;;;5088648;28;20356;-64
2021/12/06 14:55:41;;;;;;;1.80;1.70;;;;;;;;;;5086188;28;20202;-65
2021/12/06 14:58:35;;;;;;;2.40;2.20;;;;;;;;;;5073337;28;20198;-65
2021/12/06 15:01:26;;;;;;;3.40;3.10;;;;;;;;;;5086101;28;20197;-64
2021/12/06 15:04:17;;;;;;;3.33;3.03;;;;;;;;;;5082577;28;20236;-65
2021/12/06 15:07:08;;;;;;;3.33;3.03;;;;;;;;;;5072394;28;20247;-64
2021/12/06 15:09:55;;;;;;;3.40;3.10;;;;;;;;;;5087762;28;20287;-64
2021/12/06 15:12:42;;;;;;;3.37;3.07;;;;;;;;;;5088796;28;20213;-64
2021/12/06 15:15:32;;;;;;;3.40;3.10;;;;;;;;;;5083291;28;20203;-64
2021/12/06 15:18:24;;;;;;;4.67;3.43;;;;;;;;;;5084400;28;20202;-64
2021/12/06 15:21:14;;;;;;;3.27;2.97;;;;;;;;;;5103113;28;20230;-64
2021/12/06 15:24:04;;;;;;;3.27;2.97;;;;;;;;;;5110636;28;20194;-65
2021/12/06 15:26:55;;;;;;;3.40;3.10;;;;;;;;;;5109615;28;20202;-64
2021/12/06 15:29:46;;;;;;;3.33;3.03;;;;;;;;;;5100813;28;20638;-64
2021/12/06 15:32:34;;;;;;;3.30;3.00;;;;;;;;;;5089176;28;20747;-65
2021/12/06 15:35:28;;;;;;;3.20;2.87;;;;;;;;;;5089827;28;20277;-64
2021/12/06 15:38:20;;;;;;;3.53;3.23;;;;;;;;;;5090075;28;20210;-64
2021/12/06 15:41:10;;;;;;;3.50;3.20;;;;;;;;;;5102325;28;20198;-64
2021/12/06 15:44:01;;;;;;;3.33;3.10;;;;;;;;;;5109160;28;20581;-65
2021/12/06 15:46:52;;;;;;;4.23;3.57;;;;;;;;;;5109872;28;20673;-65
2021/12/06 15:49:42;;;;;;;3.30;3.10;;;;;;;;;;5095965;28;20206;-64
2021/12/06 15:52:30;;;;;;;3.93;3.63;;;;;;;;;;5094712;28;20222;-64
2021/12/06 15:55:23;;;;;;;3.20;3.00;;;;;;;;;;5097336;28;20208;-64
2021/12/06 15:58:16;;;;;;;3.23;3.03;;;;;;;;;;5102451;28;20241;-64
2021/12/06 16:01:08;;;;;;;3.87;3.57;;;;;;;;;;5112150;28;20224;-65
2021/12/06 16:04:00;;;;;;;3.47;3.27;;;;;;;;;;5110982;28;20331;-64
2021/12/06 16:06:47;;;;;;;3.73;3.43;;;;;;;;;;5112847;28;20201;-64
2021/12/06 16:09:35;;;;;;;3.53;3.33;;;;;;;;;;5111808;28;20258;-64
2021/12/06 16:12:23;;;;;;;3.13;2.93;;;;;;;;;;5111668;28;20342;-64
2021/12/06 16:15:11;;;;;;;3.37;3.13;;;;;;;;;;5112121;28;20262;-64
2021/12/06 16:18:02;;;;;;;3.40;3.10;;;;;;;;;;5111511;28;20227;-64
2021/12/06 16:20:54;;;;;;;3.37;3.17;;;;;;;;;;5113286;28;20703;-64
2021/12/06 16:23:43;;;;;;;3.20;3.00;;;;;;;;;;5108003;28;20210;-64
2021/12/06 16:26:34;;;;;;;3.20;3.00;;;;;;;;;;5093344;28;20217;-65
2021/12/06 16:29:25;;;;;;;3.23;3.03;;;;;;;;;;5098654;28;20577;-64
2021/12/06 16:32:14;;;;;;;3.03;2.83;;;;;;;;;;5092869;28;20328;-64
2021/12/06 16:35:02;;;;;;;2.90;2.70;;;;;;;;;;5107995;28;20205;-64
2021/12/06 16:37:49;;;;;;;3.17;2.97;;;;;;;;;;5112480;28;20194;-64
2021/12/06 16:40:38;;;;;;;3.20;3.00;;;;;;;;;;5102378;28;20210;-65
2021/12/06 16:43:34;;;;;;;3.13;2.93;;;;;;;;;;5093520;28;20578;-64
2021/12/06 16:46:22;;;;;;;3.00;2.83;;;;;;;;;;5091800;28;20285;-64
2021/12/06 16:49:10;;;;;;;2.80;2.70;;;;;;;;;;5093001;28;20213;-65
2021/12/06 16:52:11;;;;;;;2.77;2.57;;;;;;;;;;5092256;28;20229;-64
2021/12/06 16:55:15;;;;;;;3.07;2.87;;;;;;;;;;5092189;28;20241;-64
2021/12/06 16:58:05;;;;;;;2.90;2.70;;;;;;;;;;5092309;28;20572;-64